sensor_id;sensor_type;location;lat;lon;timestamp;temperature;humidity
23371;DHT22;11858;51.056;3.712;2022-10-23T00:01:24;15.20;99.90
23371;DHT22;11858;51.056;3.712;2022-10-23T00:04:05;15.20;99.90
23371;DHT22;11858;51.056;3.712;2022-10-23T00:06:32;15.20;99.90
23371;DHT22;11858;51.056;3.712;2022-10-23T00:08:58;15.20;99.90
23371;DHT22;11858;51.056;3.712;2022-10-23T00:11:26;15.10;99.90
23371;DHT22;11858;51.056;3.712;2022-10-23T00:13:55;15.20;99.90
23371;DHT22;11858;51.056;3.712;2022-10-23T00:16:21;15.20;99.90
23371;DHT22;11858;51.056;3.712;2022-10-23T00:18:47;15.20;99.90
23371;DHT22;11858;51.056;3.712;2022-10-23T00:21:14;15.10;99.90
23371;DHT22;11858;51.056;3.712;2022-10-23T00:23:41;15.10;99.90
23371;DHT22;11858;51.056;3.712;2022-10-23T00:26:08;15.20;99.90
23371;DHT22;11858;51.056;3.712;2022-10-23T00:28:36;15.20;99.90
23371;DHT22;11858;51.056;3.712;2022-10-23T00:31:04;15.10;99.90
23371;DHT22;11858;51.056;3.712;2022-10-23T00:33:31;15.10;99.90
23371;DHT22;11858;51.056;3.712;2022-10-23T00:35:56;15.00;99.90
23371;DHT22;11858;51.056;3.712;2022-10-23T00:38:22;15.00;99.90
23371;DHT22;11858;51.056;3.712;2022-10-23T00:40:48;15.10;99.90
23371;DHT22;11858;51.056;3.712;2022-10-23T00:43:19;15.00;99.90
23371;DHT22;11858;51.056;3.712;2022-10-23T00:45:45;15.00;99.90
23371;DHT22;11858;51.056;3.712;2022-10-23T00:48:12;15.00;99.90
23371;DHT22;11858;51.056;3.712;2022-10-23T00:50:38;15.00;99.90
23371;DHT22;11858;51.056;3.712;2022-10-23T00:53:05;15.00;99.90
23371;DHT22;11858;51.056;3.712;2022-10-23T00:55:31;14.90;99.90
23371;DHT22;11858;51.056;3.712;2022-10-23T00:57:58;14.90;99.90
23371;DHT22;11858;51.056;3.712;2022-10-23T01:00:25;14.80;99.90
23371;DHT22;11858;51.056;3.712;2022-10-23T01:02:52;14.80;99.90
23371;DHT22;11858;51.056;3.712;2022-10-23T01:05:34;14.90;99.90
23371;DHT22;11858;51.056;3.712;2022-10-23T01:08:09;14.80;99.90
23371;DHT22;11858;51.056;3.712;2022-10-23T01:10:38;14.90;99.90
23371;DHT22;11858;51.056;3.712;2022-10-23T01:13:11;14.90;99.90
23371;DHT22;11858;51.056;3.712;2022-10-23T01:15:43;15.00;99.90
23371;DHT22;11858;51.056;3.712;2022-10-23T01:18:20;15.00;99.90
23371;DHT22;11858;51.056;3.712;2022-10-23T01:29:04;14.80;99.90
23371;DHT22;11858;51.056;3.712;2022-10-23T01:31:37;14.90;99.90
23371;DHT22;11858;51.056;3.712;2022-10-23T01:34:29;14.90;99.90
23371;DHT22;11858;51.056;3.712;2022-10-23T01:36:56;15.00;99.90
23371;DHT22;11858;51.056;3.712;2022-10-23T01:39:33;15.00;99.90
23371;DHT22;11858;51.056;3.712;2022-10-23T01:42:07;15.00;99.90
23371;DHT22;11858;51.056;3.712;2022-10-23T01:44:45;14.90;99.90
23371;DHT22;11858;51.056;3.712;2022-10-23T01:47:17;15.00;99.90
23371;DHT22;11858;51.056;3.712;2022-10-23T01:49:45;15.00;99.90
23371;DHT22;11858;51.056;3.712;2022-10-23T01:52:13;15.00;99.90
23371;DHT22;11858;51.056;3.712;2022-10-23T01:54:42;15.00;99.90
23371;DHT22;11858;51.056;3.712;2022-10-23T01:57:11;15.00;99.90
23371;DHT22;11858;51.056;3.712;2022-10-23T01:59:47;15.00;99.90
23371;DHT22;11858;51.056;3.712;2022-10-23T02:02:14;15.00;99.90
23371;DHT22;11858;51.056;3.712;2022-10-23T02:04:49;15.00;99.90
23371;DHT22;11858;51.056;3.712;2022-10-23T02:07:17;15.00;99.90
23371;DHT22;11858;51.056;3.712;2022-10-23T02:09:43;15.00;99.90
23371;DHT22;11858;51.056;3.712;2022-10-23T02:12:17;15.00;99.90
23371;DHT22;11858;51.056;3.712;2022-10-23T02:14:51;15.00;99.90
23371;DHT22;11858;51.056;3.712;2022-10-23T02:19:57;15.00;99.90
23371;DHT22;11858;51.056;3.712;2022-10-23T02:22:39;15.00;99.90
23371;DHT22;11858;51.056;3.712;2022-10-23T02:25:14;15.00;99.90
23371;DHT22;11858;51.056;3.712;2022-10-23T02:27:46;15.00;99.90
23371;DHT22;11858;51.056;3.712;2022-10-23T02:30:15;15.00;99.90
23371;DHT22;11858;51.056;3.712;2022-10-23T02:32:51;15.00;99.90
23371;DHT22;11858;51.056;3.712;2022-10-23T02:35:20;15.00;99.90
23371;DHT22;11858;51.056;3.712;2022-10-23T02:37:57;15.10;99.90
23371;DHT22;11858;51.056;3.712;2022-10-23T02:40:31;15.00;99.90
23371;DHT22;11858;51.056;3.712;2022-10-23T02:43:13;15.00;99.90
23371;DHT22;11858;51.056;3.712;2022-10-23T02:45:57;15.00;99.90
23371;DHT22;11858;51.056;3.712;2022-10-23T02:48:32;15.00;99.90
23371;DHT22;11858;51.056;3.712;2022-10-23T02:51:13;14.90;99.90
23371;DHT22;11858;51.056;3.712;2022-10-23T02:54:05;15.00;99.90
23371;DHT22;11858;51.056;3.712;2022-10-23T02:57:11;15.00;99.90
23371;DHT22;11858;51.056;3.712;2022-10-23T02:59:35;15.00;99.90
23371;DHT22;11858;51.056;3.712;2022-10-23T03:02:07;14.90;99.90
23371;DHT22;11858;51.056;3.712;2022-10-23T03:04:39;14.90;99.90
23371;DHT22;11858;51.056;3.712;2022-10-23T03:07:10;14.90;99.90
23371;DHT22;11858;51.056;3.712;2022-10-23T03:09:36;14.90;99.90
23371;DHT22;11858;51.056;3.712;2022-10-23T03:12:02;15.00;99.90
23371;DHT22;11858;51.056;3.712;2022-10-23T03:14:28;14.90;99.90
23371;DHT22;11858;51.056;3.712;2022-10-23T03:16:53;15.00;99.90
23371;DHT22;11858;51.056;3.712;2022-10-23T03:19:19;15.00;99.90
23371;DHT22;11858;51.056;3.712;2022-10-23T03:21:45;15.10;99.90
23371;DHT22;11858;51.056;3.712;2022-10-23T03:24:11;15.20;99.90
23371;DHT22;11858;51.056;3.712;2022-10-23T03:26:36;15.20;99.90
23371;DHT22;11858;51.056;3.712;2022-10-23T03:29:02;15.20;99.90
23371;DHT22;11858;51.056;3.712;2022-10-23T03:31:28;15.20;99.90
23371;DHT22;11858;51.056;3.712;2022-10-23T03:33:54;15.10;99.90
23371;DHT22;11858;51.056;3.712;2022-10-23T03:36:20;15.10;99.90
23371;DHT22;11858;51.056;3.712;2022-10-23T03:38:45;15.10;99.90
23371;DHT22;11858;51.056;3.712;2022-10-23T03:41:11;15.20;99.90
23371;DHT22;11858;51.056;3.712;2022-10-23T03:43:37;15.20;99.90
23371;DHT22;11858;51.056;3.712;2022-10-23T03:46:03;15.10;99.90
23371;DHT22;11858;51.056;3.712;2022-10-23T03:48:33;15.20;99.90
23371;DHT22;11858;51.056;3.712;2022-10-23T03:51:04;15.10;99.90
23371;DHT22;11858;51.056;3.712;2022-10-23T03:53:30;15.00;99.90
23371;DHT22;11858;51.056;3.712;2022-10-23T03:55:55;15.00;99.90
23371;DHT22;11858;51.056;3.712;2022-10-23T03:58:21;15.00;99.90
23371;DHT22;11858;51.056;3.712;2022-10-23T04:00:47;15.00;99.90
23371;DHT22;11858;51.056;3.712;2022-10-23T04:03:13;15.00;99.90
23371;DHT22;11858;51.056;3.712;2022-10-23T04:05:41;15.00;99.90
23371;DHT22;11858;51.056;3.712;2022-10-23T04:08:08;15.00;99.90
23371;DHT22;11858;51.056;3.712;2022-10-23T04:10:34;15.10;99.90
23371;DHT22;11858;51.056;3.712;2022-10-23T04:13:00;15.10;99.90
23371;DHT22;11858;51.056;3.712;2022-10-23T04:15:26;15.10;99.90
23371;DHT22;11858;51.056;3.712;2022-10-23T04:17:52;15.10;99.90
23371;DHT22;11858;51.056;3.712;2022-10-23T04:20:18;15.20;99.90
23371;DHT22;11858;51.056;3.712;2022-10-23T04:22:43;15.20;99.90
23371;DHT22;11858;51.056;3.712;2022-10-23T04:25:09;15.20;99.90
23371;DHT22;11858;51.056;3.712;2022-10-23T04:27:35;15.20;99.90
23371;DHT22;11858;51.056;3.712;2022-10-23T04:30:02;15.20;99.90
23371;DHT22;11858;51.056;3.712;2022-10-23T04:32:28;15.20;99.90
23371;DHT22;11858;51.056;3.712;2022-10-23T04:34:54;15.20;99.90
23371;DHT22;11858;51.056;3.712;2022-10-23T04:37:20;15.10;99.90
23371;DHT22;11858;51.056;3.712;2022-10-23T04:39:45;15.10;99.90
23371;DHT22;11858;51.056;3.712;2022-10-23T04:42:11;15.10;99.90
23371;DHT22;11858;51.056;3.712;2022-10-23T04:44:37;15.00;99.90
23371;DHT22;11858;51.056;3.712;2022-10-23T04:47:03;15.00;99.90
23371;DHT22;11858;51.056;3.712;2022-10-23T04:49:28;14.90;99.90
23371;DHT22;11858;51.056;3.712;2022-10-23T04:51:54;14.80;99.90
23371;DHT22;11858;51.056;3.712;2022-10-23T04:54:20;14.80;99.90
23371;DHT22;11858;51.056;3.712;2022-10-23T04:56:46;14.80;99.90
23371;DHT22;11858;51.056;3.712;2022-10-23T04:59:12;14.80;99.90
23371;DHT22;11858;51.056;3.712;2022-10-23T05:01:37;14.80;99.90
23371;DHT22;11858;51.056;3.712;2022-10-23T05:04:04;14.70;99.90
23371;DHT22;11858;51.056;3.712;2022-10-23T05:06:29;14.80;99.90
23371;DHT22;11858;51.056;3.712;2022-10-23T05:08:55;14.80;99.90
23371;DHT22;11858;51.056;3.712;2022-10-23T05:11:21;14.80;99.90
23371;DHT22;11858;51.056;3.712;2022-10-23T05:13:47;14.80;99.90
23371;DHT22;11858;51.056;3.712;2022-10-23T05:16:26;14.70;99.90
23371;DHT22;11858;51.056;3.712;2022-10-23T05:18:53;14.90;99.90
23371;DHT22;11858;51.056;3.712;2022-10-23T05:21:22;14.80;99.90
23371;DHT22;11858;51.056;3.712;2022-10-23T05:23:52;14.90;99.90
23371;DHT22;11858;51.056;3.712;2022-10-23T05:26:18;14.90;99.90
23371;DHT22;11858;51.056;3.712;2022-10-23T05:28:44;14.80;99.90
23371;DHT22;11858;51.056;3.712;2022-10-23T05:31:11;14.90;99.90
23371;DHT22;11858;51.056;3.712;2022-10-23T05:33:37;14.90;99.90
23371;DHT22;11858;51.056;3.712;2022-10-23T05:36:03;14.90;99.90
23371;DHT22;11858;51.056;3.712;2022-10-23T05:38:31;14.90;99.90
23371;DHT22;11858;51.056;3.712;2022-10-23T05:40:58;15.00;99.90
23371;DHT22;11858;51.056;3.712;2022-10-23T05:43:24;14.90;99.90
23371;DHT22;11858;51.056;3.712;2022-10-23T05:45:52;14.90;99.90
23371;DHT22;11858;51.056;3.712;2022-10-23T05:48:18;14.90;99.90
23371;DHT22;11858;51.056;3.712;2022-10-23T05:50:44;14.90;99.90
23371;DHT22;11858;51.056;3.712;2022-10-23T05:53:10;14.90;99.90
23371;DHT22;11858;51.056;3.712;2022-10-23T05:55:36;15.00;99.90
23371;DHT22;11858;51.056;3.712;2022-10-23T05:58:03;15.00;99.90
23371;DHT22;11858;51.056;3.712;2022-10-23T06:00:29;15.00;99.90
23371;DHT22;11858;51.056;3.712;2022-10-23T06:02:55;15.10;99.90
23371;DHT22;11858;51.056;3.712;2022-10-23T06:05:23;15.10;99.90
23371;DHT22;11858;51.056;3.712;2022-10-23T06:07:49;15.20;99.90
23371;DHT22;11858;51.056;3.712;2022-10-23T06:10:15;15.10;99.90
23371;DHT22;11858;51.056;3.712;2022-10-23T06:12:41;15.20;99.90
23371;DHT22;11858;51.056;3.712;2022-10-23T06:15:07;15.20;99.90
23371;DHT22;11858;51.056;3.712;2022-10-23T06:17:32;15.20;99.90
23371;DHT22;11858;51.056;3.712;2022-10-23T06:19:58;15.20;99.90
23371;DHT22;11858;51.056;3.712;2022-10-23T06:22:28;15.20;99.90
23371;DHT22;11858;51.056;3.712;2022-10-23T06:24:54;15.10;99.90
23371;DHT22;11858;51.056;3.712;2022-10-23T06:27:20;15.00;99.90
23371;DHT22;11858;51.056;3.712;2022-10-23T06:29:46;15.10;99.90
23371;DHT22;11858;51.056;3.712;2022-10-23T06:32:12;15.10;99.90
23371;DHT22;11858;51.056;3.712;2022-10-23T06:34:38;15.10;99.90
23371;DHT22;11858;51.056;3.712;2022-10-23T06:37:03;15.20;99.90
23371;DHT22;11858;51.056;3.712;2022-10-23T06:39:29;15.20;99.90
23371;DHT22;11858;51.056;3.712;2022-10-23T06:41:55;15.20;99.90
23371;DHT22;11858;51.056;3.712;2022-10-23T06:44:20;15.20;99.90
23371;DHT22;11858;51.056;3.712;2022-10-23T06:46:46;15.20;99.90
23371;DHT22;11858;51.056;3.712;2022-10-23T06:49:14;15.10;99.90
23371;DHT22;11858;51.056;3.712;2022-10-23T06:51:40;15.20;99.90
23371;DHT22;11858;51.056;3.712;2022-10-23T06:54:06;15.20;99.90
23371;DHT22;11858;51.056;3.712;2022-10-23T06:56:33;15.40;99.90
23371;DHT22;11858;51.056;3.712;2022-10-23T06:59:00;15.40;99.90
23371;DHT22;11858;51.056;3.712;2022-10-23T07:01:25;15.40;99.90
23371;DHT22;11858;51.056;3.712;2022-10-23T07:03:51;15.50;99.90
23371;DHT22;11858;51.056;3.712;2022-10-23T07:06:17;15.50;99.90
23371;DHT22;11858;51.056;3.712;2022-10-23T07:08:43;15.50;99.90
23371;DHT22;11858;51.056;3.712;2022-10-23T07:11:10;15.50;99.90
23371;DHT22;11858;51.056;3.712;2022-10-23T07:13:37;15.50;99.90
23371;DHT22;11858;51.056;3.712;2022-10-23T07:16:15;15.50;99.90
23371;DHT22;11858;51.056;3.712;2022-10-23T07:18:42;15.70;99.90
23371;DHT22;11858;51.056;3.712;2022-10-23T07:21:08;15.60;99.90
23371;DHT22;11858;51.056;3.712;2022-10-23T07:23:35;15.70;99.90
23371;DHT22;11858;51.056;3.712;2022-10-23T07:28:30;15.50;99.90
23371;DHT22;11858;51.056;3.712;2022-10-23T07:30:58;15.60;99.90
23371;DHT22;11858;51.056;3.712;2022-10-23T07:33:24;15.60;99.90
23371;DHT22;11858;51.056;3.712;2022-10-23T07:35:49;15.70;99.90
23371;DHT22;11858;51.056;3.712;2022-10-23T07:38:15;15.70;99.90
23371;DHT22;11858;51.056;3.712;2022-10-23T07:40:43;15.80;99.90
23371;DHT22;11858;51.056;3.712;2022-10-23T07:43:09;15.70;99.90
23371;DHT22;11858;51.056;3.712;2022-10-23T07:45:35;15.80;99.90
23371;DHT22;11858;51.056;3.712;2022-10-23T07:48:01;15.90;99.90
23371;DHT22;11858;51.056;3.712;2022-10-23T07:50:26;16.00;99.90
23371;DHT22;11858;51.056;3.712;2022-10-23T07:52:52;16.00;99.90
23371;DHT22;11858;51.056;3.712;2022-10-23T07:55:18;16.00;99.90
23371;DHT22;11858;51.056;3.712;2022-10-23T07:57:44;16.00;99.90
23371;DHT22;11858;51.056;3.712;2022-10-23T08:00:10;16.00;99.90
23371;DHT22;11858;51.056;3.712;2022-10-23T08:02:36;16.00;99.90
23371;DHT22;11858;51.056;3.712;2022-10-23T08:05:03;16.00;99.90
23371;DHT22;11858;51.056;3.712;2022-10-23T08:07:29;16.00;99.90
23371;DHT22;11858;51.056;3.712;2022-10-23T08:09:54;16.10;99.90
23371;DHT22;11858;51.056;3.712;2022-10-23T08:12:20;16.20;99.90
23371;DHT22;11858;51.056;3.712;2022-10-23T08:14:46;16.20;99.90
23371;DHT22;11858;51.056;3.712;2022-10-23T08:17:12;16.20;99.90
23371;DHT22;11858;51.056;3.712;2022-10-23T08:19:38;16.20;99.90
23371;DHT22;11858;51.056;3.712;2022-10-23T08:22:04;16.30;99.90
23371;DHT22;11858;51.056;3.712;2022-10-23T08:24:30;16.30;99.90
23371;DHT22;11858;51.056;3.712;2022-10-23T08:26:55;16.30;99.90
23371;DHT22;11858;51.056;3.712;2022-10-23T08:29:23;16.40;99.90
23371;DHT22;11858;51.056;3.712;2022-10-23T08:31:51;16.50;99.90
23371;DHT22;11858;51.056;3.712;2022-10-23T08:34:17;16.40;99.90
23371;DHT22;11858;51.056;3.712;2022-10-23T08:36:43;16.40;99.90
23371;DHT22;11858;51.056;3.712;2022-10-23T08:39:09;16.50;99.90
23371;DHT22;11858;51.056;3.712;2022-10-23T08:41:41;16.60;99.90
23371;DHT22;11858;51.056;3.712;2022-10-23T08:51:58;16.60;99.90
23371;DHT22;11858;51.056;3.712;2022-10-23T08:54:49;16.70;99.90
23371;DHT22;11858;51.056;3.712;2022-10-23T08:57:21;16.70;99.90
23371;DHT22;11858;51.056;3.712;2022-10-23T08:59:55;16.80;99.90
23371;DHT22;11858;51.056;3.712;2022-10-23T09:02:47;16.80;99.90
23371;DHT22;11858;51.056;3.712;2022-10-23T09:05:15;16.80;99.90
23371;DHT22;11858;51.056;3.712;2022-10-23T09:11:07;16.90;99.90
23371;DHT22;11858;51.056;3.712;2022-10-23T09:16:18;16.90;99.90
23371;DHT22;11858;51.056;3.712;2022-10-23T09:18:49;16.90;99.90
23371;DHT22;11858;51.056;3.712;2022-10-23T09:21:15;17.00;99.90
23371;DHT22;11858;51.056;3.712;2022-10-23T09:23:41;17.40;99.90
23371;DHT22;11858;51.056;3.712;2022-10-23T09:26:13;17.50;99.90
23371;DHT22;11858;51.056;3.712;2022-10-23T09:31:11;17.40;99.90
23371;DHT22;11858;51.056;3.712;2022-10-23T09:33:38;17.50;99.90
23371;DHT22;11858;51.056;3.712;2022-10-23T09:36:06;17.60;99.90
23371;DHT22;11858;51.056;3.712;2022-10-23T09:38:36;17.60;99.90
23371;DHT22;11858;51.056;3.712;2022-10-23T09:41:10;17.60;99.90
23371;DHT22;11858;51.056;3.712;2022-10-23T09:43:37;17.70;99.90
23371;DHT22;11858;51.056;3.712;2022-10-23T09:46:05;17.60;99.90
23371;DHT22;11858;51.056;3.712;2022-10-23T09:48:32;17.70;99.90
23371;DHT22;11858;51.056;3.712;2022-10-23T09:51:24;17.70;99.90
23371;DHT22;11858;51.056;3.712;2022-10-23T09:53:56;17.80;99.90
23371;DHT22;11858;51.056;3.712;2022-10-23T09:56:32;18.10;99.90
23371;DHT22;11858;51.056;3.712;2022-10-23T10:01:33;18.20;99.90
23371;DHT22;11858;51.056;3.712;2022-10-23T10:04:03;18.20;99.90
23371;DHT22;11858;51.056;3.712;2022-10-23T10:06:32;18.30;99.90
23371;DHT22;11858;51.056;3.712;2022-10-23T10:09:03;18.30;99.90
23371;DHT22;11858;51.056;3.712;2022-10-23T10:11:36;18.40;99.90
23371;DHT22;11858;51.056;3.712;2022-10-23T10:20:01;18.50;99.90
23371;DHT22;11858;51.056;3.712;2022-10-23T10:25:36;18.60;99.90
23371;DHT22;11858;51.056;3.712;2022-10-23T10:28:30;18.50;99.90
23371;DHT22;11858;51.056;3.712;2022-10-23T10:31:17;18.50;99.90
23371;DHT22;11858;51.056;3.712;2022-10-23T10:36:53;18.70;99.90
23371;DHT22;11858;51.056;3.712;2022-10-23T10:42:23;18.70;99.90
23371;DHT22;11858;51.056;3.712;2022-10-23T10:48:15;18.80;99.90
23371;DHT22;11858;51.056;3.712;2022-10-23T10:50:48;19.10;99.90
23371;DHT22;11858;51.056;3.712;2022-10-23T10:53:27;18.90;99.90
23371;DHT22;11858;51.056;3.712;2022-10-23T10:55:57;18.80;99.90
23371;DHT22;11858;51.056;3.712;2022-10-23T10:58:37;18.90;99.90
23371;DHT22;11858;51.056;3.712;2022-10-23T11:01:09;19.10;99.90
23371;DHT22;11858;51.056;3.712;2022-10-23T11:03:42;19.30;99.90
23371;DHT22;11858;51.056;3.712;2022-10-23T11:06:22;19.40;99.90
23371;DHT22;11858;51.056;3.712;2022-10-23T11:08:49;19.40;99.90
23371;DHT22;11858;51.056;3.712;2022-10-23T11:11:21;19.40;99.90
23371;DHT22;11858;51.056;3.712;2022-10-23T11:13:50;19.50;99.90
23371;DHT22;11858;51.056;3.712;2022-10-23T11:16:24;19.70;99.90
23371;DHT22;11858;51.056;3.712;2022-10-23T11:19:02;19.80;99.90
23371;DHT22;11858;51.056;3.712;2022-10-23T11:21:45;19.90;99.90
23371;DHT22;11858;51.056;3.712;2022-10-23T11:24:51;20.10;99.90
23371;DHT22;11858;51.056;3.712;2022-10-23T11:30:21;20.70;99.90
23371;DHT22;11858;51.056;3.712;2022-10-23T11:38:27;21.70;99.90
23371;DHT22;11858;51.056;3.712;2022-10-23T11:40:59;21.90;99.90
23371;DHT22;11858;51.056;3.712;2022-10-23T11:43:45;21.60;99.90
23371;DHT22;11858;51.056;3.712;2022-10-23T11:46:13;21.60;99.90
23371;DHT22;11858;51.056;3.712;2022-10-23T11:48:41;21.50;99.90
23371;DHT22;11858;51.056;3.712;2022-10-23T11:51:29;21.10;99.90
23371;DHT22;11858;51.056;3.712;2022-10-23T11:56:38;21.00;99.90
23371;DHT22;11858;51.056;3.712;2022-10-23T11:59:26;21.10;99.90
23371;DHT22;11858;51.056;3.712;2022-10-23T12:01:55;21.00;99.90
23371;DHT22;11858;51.056;3.712;2022-10-23T12:04:40;21.10;99.90
23371;DHT22;11858;51.056;3.712;2022-10-23T12:07:26;21.40;99.90
23371;DHT22;11858;51.056;3.712;2022-10-23T12:10:05;21.60;99.90
23371;DHT22;11858;51.056;3.712;2022-10-23T12:12:37;21.80;99.90
23371;DHT22;11858;51.056;3.712;2022-10-23T12:15:17;21.80;99.90
23371;DHT22;11858;51.056;3.712;2022-10-23T12:17:44;21.90;99.90
23371;DHT22;11858;51.056;3.712;2022-10-23T12:25:50;22.30;99.90
23371;DHT22;11858;51.056;3.712;2022-10-23T12:28:34;22.30;99.90
23371;DHT22;11858;51.056;3.712;2022-10-23T12:31:11;22.40;99.90
23371;DHT22;11858;51.056;3.712;2022-10-23T12:36:44;22.80;99.90
23371;DHT22;11858;51.056;3.712;2022-10-23T12:41:54;23.40;99.90
23371;DHT22;11858;51.056;3.712;2022-10-23T12:44:20;23.40;99.90
23371;DHT22;11858;51.056;3.712;2022-10-23T12:46:49;23.40;99.90
23371;DHT22;11858;51.056;3.712;2022-10-23T12:49:20;23.70;99.90
23371;DHT22;11858;51.056;3.712;2022-10-23T12:54:23;23.80;99.90
23371;DHT22;11858;51.056;3.712;2022-10-23T12:56:49;24.40;99.90
23371;DHT22;11858;51.056;3.712;2022-10-23T12:59:21;24.60;99.90
23371;DHT22;11858;51.056;3.712;2022-10-23T13:01:48;24.30;99.90
23371;DHT22;11858;51.056;3.712;2022-10-23T13:06:52;23.10;99.90
23371;DHT22;11858;51.056;3.712;2022-10-23T13:11:49;22.70;99.90
23371;DHT22;11858;51.056;3.712;2022-10-23T13:14:37;22.70;99.90
23371;DHT22;11858;51.056;3.712;2022-10-23T13:17:07;22.70;99.90
23371;DHT22;11858;51.056;3.712;2022-10-23T13:19:34;22.60;99.90
23371;DHT22;11858;51.056;3.712;2022-10-23T13:22:03;22.70;99.90
23371;DHT22;11858;51.056;3.712;2022-10-23T13:24:30;22.90;99.90
23371;DHT22;11858;51.056;3.712;2022-10-23T13:26:56;22.60;99.90
23371;DHT22;11858;51.056;3.712;2022-10-23T13:29:29;22.70;99.90
23371;DHT22;11858;51.056;3.712;2022-10-23T13:31:56;22.70;99.90
23371;DHT22;11858;51.056;3.712;2022-10-23T13:34:27;22.50;99.90
23371;DHT22;11858;51.056;3.712;2022-10-23T13:37:00;22.60;99.90
23371;DHT22;11858;51.056;3.712;2022-10-23T13:39:31;22.60;99.90
23371;DHT22;11858;51.056;3.712;2022-10-23T13:42:12;22.80;99.90
23371;DHT22;11858;51.056;3.712;2022-10-23T13:44:39;22.70;99.90
23371;DHT22;11858;51.056;3.712;2022-10-23T13:47:09;22.70;99.90
23371;DHT22;11858;51.056;3.712;2022-10-23T13:49:36;22.60;99.90
23371;DHT22;11858;51.056;3.712;2022-10-23T13:52:02;22.60;99.90
23371;DHT22;11858;51.056;3.712;2022-10-23T13:54:28;22.30;99.90
23371;DHT22;11858;51.056;3.712;2022-10-23T13:56:55;22.30;99.90
23371;DHT22;11858;51.056;3.712;2022-10-23T13:59:21;22.30;99.90
23371;DHT22;11858;51.056;3.712;2022-10-23T14:01:48;22.20;99.90
23371;DHT22;11858;51.056;3.712;2022-10-23T14:04:16;21.90;99.90
23371;DHT22;11858;51.056;3.712;2022-10-23T14:06:42;21.80;99.90
23371;DHT22;11858;51.056;3.712;2022-10-23T14:09:12;21.70;99.90
23371;DHT22;11858;51.056;3.712;2022-10-23T14:11:38;21.70;99.90
23371;DHT22;11858;51.056;3.712;2022-10-23T14:14:04;21.80;99.90
23371;DHT22;11858;51.056;3.712;2022-10-23T14:16:30;21.80;99.90
23371;DHT22;11858;51.056;3.712;2022-10-23T14:18:56;21.60;99.90
23371;DHT22;11858;51.056;3.712;2022-10-23T14:21:24;21.60;99.90
23371;DHT22;11858;51.056;3.712;2022-10-23T14:23:51;21.50;99.90
23371;DHT22;11858;51.056;3.712;2022-10-23T14:26:24;21.40;99.90
23371;DHT22;11858;51.056;3.712;2022-10-23T14:28:53;21.30;99.90
23371;DHT22;11858;51.056;3.712;2022-10-23T14:31:20;21.30;99.90
23371;DHT22;11858;51.056;3.712;2022-10-23T14:33:54;21.20;99.90
23371;DHT22;11858;51.056;3.712;2022-10-23T14:36:21;21.20;99.90
23371;DHT22;11858;51.056;3.712;2022-10-23T14:38:49;21.10;99.90
23371;DHT22;11858;51.056;3.712;2022-10-23T14:41:19;21.10;99.90
23371;DHT22;11858;51.056;3.712;2022-10-23T14:43:45;21.10;99.90
23371;DHT22;11858;51.056;3.712;2022-10-23T14:46:16;21.10;99.90
23371;DHT22;11858;51.056;3.712;2022-10-23T14:48:48;21.00;99.90
23371;DHT22;11858;51.056;3.712;2022-10-23T14:51:23;20.90;99.90
23371;DHT22;11858;51.056;3.712;2022-10-23T14:53:54;20.90;99.90
23371;DHT22;11858;51.056;3.712;2022-10-23T14:56:21;21.00;99.90
23371;DHT22;11858;51.056;3.712;2022-10-23T14:58:48;20.80;99.90
23371;DHT22;11858;51.056;3.712;2022-10-23T15:01:14;20.80;99.90
23371;DHT22;11858;51.056;3.712;2022-10-23T15:03:40;20.60;99.90
23371;DHT22;11858;51.056;3.712;2022-10-23T15:06:06;20.70;99.90
23371;DHT22;11858;51.056;3.712;2022-10-23T15:08:33;20.80;99.90
23371;DHT22;11858;51.056;3.712;2022-10-23T15:11:03;20.80;99.90
23371;DHT22;11858;51.056;3.712;2022-10-23T15:13:38;20.90;99.90
23371;DHT22;11858;51.056;3.712;2022-10-23T15:16:06;20.90;99.90
23371;DHT22;11858;51.056;3.712;2022-10-23T15:18:33;20.80;99.90
23371;DHT22;11858;51.056;3.712;2022-10-23T15:21:06;21.00;99.90
23371;DHT22;11858;51.056;3.712;2022-10-23T15:23:35;21.00;99.90
23371;DHT22;11858;51.056;3.712;2022-10-23T15:26:03;21.10;99.90
23371;DHT22;11858;51.056;3.712;2022-10-23T15:28:33;21.20;99.90
23371;DHT22;11858;51.056;3.712;2022-10-23T15:30:59;21.20;99.90
23371;DHT22;11858;51.056;3.712;2022-10-23T15:33:25;21.20;99.90
23371;DHT22;11858;51.056;3.712;2022-10-23T15:35:54;21.10;99.90
23371;DHT22;11858;51.056;3.712;2022-10-23T15:38:21;21.10;99.90
23371;DHT22;11858;51.056;3.712;2022-10-23T15:40:47;21.10;99.90
23371;DHT22;11858;51.056;3.712;2022-10-23T15:43:14;21.00;99.90
23371;DHT22;11858;51.056;3.712;2022-10-23T15:45:41;21.00;99.90
23371;DHT22;11858;51.056;3.712;2022-10-23T15:48:07;20.90;99.90
23371;DHT22;11858;51.056;3.712;2022-10-23T15:50:34;20.90;99.90
23371;DHT22;11858;51.056;3.712;2022-10-23T15:53:01;20.90;99.90
23371;DHT22;11858;51.056;3.712;2022-10-23T15:55:27;20.80;99.90
23371;DHT22;11858;51.056;3.712;2022-10-23T15:57:53;20.90;99.90
23371;DHT22;11858;51.056;3.712;2022-10-23T16:00:20;20.80;99.90
23371;DHT22;11858;51.056;3.712;2022-10-23T16:02:47;20.70;99.90
23371;DHT22;11858;51.056;3.712;2022-10-23T16:05:13;20.60;99.90
23371;DHT22;11858;51.056;3.712;2022-10-23T16:07:39;20.60;99.90
23371;DHT22;11858;51.056;3.712;2022-10-23T16:10:05;20.60;99.90
23371;DHT22;11858;51.056;3.712;2022-10-23T16:12:31;20.60;99.90
23371;DHT22;11858;51.056;3.712;2022-10-23T16:14:57;20.50;99.90
23371;DHT22;11858;51.056;3.712;2022-10-23T16:17:23;20.40;99.90
23371;DHT22;11858;51.056;3.712;2022-10-23T16:19:48;20.60;99.90
23371;DHT22;11858;51.056;3.712;2022-10-23T16:22:14;20.70;99.90
23371;DHT22;11858;51.056;3.712;2022-10-23T16:24:41;20.60;99.90
23371;DHT22;11858;51.056;3.712;2022-10-23T16:27:07;20.40;99.90
23371;DHT22;11858;51.056;3.712;2022-10-23T16:29:33;20.40;99.90
23371;DHT22;11858;51.056;3.712;2022-10-23T16:31:59;20.40;99.90
23371;DHT22;11858;51.056;3.712;2022-10-23T16:34:25;20.40;99.90
23371;DHT22;11858;51.056;3.712;2022-10-23T16:36:51;20.40;99.90
23371;DHT22;11858;51.056;3.712;2022-10-23T16:39:18;20.30;99.90
23371;DHT22;11858;51.056;3.712;2022-10-23T16:41:44;20.10;99.90
23371;DHT22;11858;51.056;3.712;2022-10-23T16:44:10;20.10;99.90
23371;DHT22;11858;51.056;3.712;2022-10-23T16:46:36;20.20;99.90
23371;DHT22;11858;51.056;3.712;2022-10-23T16:49:04;20.00;99.90
23371;DHT22;11858;51.056;3.712;2022-10-23T16:51:30;20.10;99.90
23371;DHT22;11858;51.056;3.712;2022-10-23T16:53:57;20.00;99.90
23371;DHT22;11858;51.056;3.712;2022-10-23T16:56:25;20.10;99.90
23371;DHT22;11858;51.056;3.712;2022-10-23T16:58:53;20.00;99.90
23371;DHT22;11858;51.056;3.712;2022-10-23T17:01:21;20.10;99.90
23371;DHT22;11858;51.056;3.712;2022-10-23T17:03:48;20.10;99.90